sensor_id;sensor_type;location;lat;lon;timestamp;P1;durP1;ratioP1;P2;durP2;ratioP2
18280;SDS011;9266;51.132;17.062;2023-05-29T00:00:39;6.07;;;4.30;;
18280;SDS011;9266;51.132;17.062;2023-05-29T00:03:07;7.57;;;4.60;;
18280;SDS011;9266;51.132;17.062;2023-05-29T00:05:34;8.50;;;4.80;;
18280;SDS011;9266;51.132;17.062;2023-05-29T00:08:01;18.23;;;10.13;;
18280;SDS011;9266;51.132;17.062;2023-05-29T00:10:29;6.83;;;4.97;;
18280;SDS011;9266;51.132;17.062;2023-05-29T00:12:57;5.83;;;4.63;;
18280;SDS011;9266;51.132;17.062;2023-05-29T00:15:26;8.10;;;4.50;;
18280;SDS011;9266;51.132;17.062;2023-05-29T00:17:55;7.17;;;4.70;;
18280;SDS011;9266;51.132;17.062;2023-05-29T00:20:22;7.87;;;4.70;;
18280;SDS011;9266;51.132;17.062;2023-05-29T00:22:49;7.67;;;4.80;;
18280;SDS011;9266;51.132;17.062;2023-05-29T00:25:17;5.17;;;4.33;;
18280;SDS011;9266;51.132;17.062;2023-05-29T00:27:46;6.17;;;4.73;;
18280;SDS011;9266;51.132;17.062;2023-05-29T00:30:13;6.90;;;4.60;;
18280;SDS011;9266;51.132;17.062;2023-05-29T00:32:40;8.13;;;4.60;;
18280;SDS011;9266;51.132;17.062;2023-05-29T00:35:08;7.80;;;4.63;;
18280;SDS011;9266;51.132;17.062;2023-05-29T00:37:35;9.47;;;4.60;;
18280;SDS011;9266;51.132;17.062;2023-05-29T00:40:02;7.20;;;4.60;;
18280;SDS011;9266;51.132;17.062;2023-05-29T00:42:30;5.03;;;4.40;;
18280;SDS011;9266;51.132;17.062;2023-05-29T00:44:58;5.77;;;4.40;;
18280;SDS011;9266;51.132;17.062;2023-05-29T00:47:25;6.80;;;4.93;;
18280;SDS011;9266;51.132;17.062;2023-05-29T00:49:52;7.03;;;4.50;;
18280;SDS011;9266;51.132;17.062;2023-05-29T00:52:21;7.90;;;4.63;;
18280;SDS011;9266;51.132;17.062;2023-05-29T00:54:49;5.17;;;4.10;;
18280;SDS011;9266;51.132;17.062;2023-05-29T00:57:16;6.43;;;4.13;;
18280;SDS011;9266;51.132;17.062;2023-05-29T00:59:44;7.43;;;5.00;;
18280;SDS011;9266;51.132;17.062;2023-05-29T01:02:15;8.47;;;4.93;;
18280;SDS011;9266;51.132;17.062;2023-05-29T01:04:43;9.63;;;5.20;;
18280;SDS011;9266;51.132;17.062;2023-05-29T01:07:11;7.23;;;5.47;;
18280;SDS011;9266;51.132;17.062;2023-05-29T01:09:39;10.37;;;6.63;;
18280;SDS011;9266;51.132;17.062;2023-05-29T01:12:08;11.53;;;7.57;;
18280;SDS011;9266;51.132;17.062;2023-05-29T01:14:48;10.67;;;7.37;;
18280;SDS011;9266;51.132;17.062;2023-05-29T01:17:28;12.63;;;7.30;;
18280;SDS011;9266;51.132;17.062;2023-05-29T01:20:08;9.93;;;6.40;;
18280;SDS011;9266;51.132;17.062;2023-05-29T01:22:58;9.60;;;6.43;;
18280;SDS011;9266;51.132;17.062;2023-05-29T01:25:56;5.97;;;4.90;;
18280;SDS011;9266;51.132;17.062;2023-05-29T01:28:37;7.67;;;5.60;;
18280;SDS011;9266;51.132;17.062;2023-05-29T01:31:07;8.80;;;5.60;;
18280;SDS011;9266;51.132;17.062;2023-05-29T01:33:38;7.00;;;5.40;;
18280;SDS011;9266;51.132;17.062;2023-05-29T01:36:07;7.83;;;4.87;;
18280;SDS011;9266;51.132;17.062;2023-05-29T01:38:36;8.33;;;5.30;;
18280;SDS011;9266;51.132;17.062;2023-05-29T01:41:03;10.53;;;5.30;;
18280;SDS011;9266;51.132;17.062;2023-05-29T01:43:30;7.70;;;5.30;;
18280;SDS011;9266;51.132;17.062;2023-05-29T01:45:59;7.37;;;5.20;;
18280;SDS011;9266;51.132;17.062;2023-05-29T01:48:26;7.70;;;5.20;;
18280;SDS011;9266;51.132;17.062;2023-05-29T01:50:54;7.97;;;5.27;;
18280;SDS011;9266;51.132;17.062;2023-05-29T01:53:22;7.50;;;5.03;;
18280;SDS011;9266;51.132;17.062;2023-05-29T01:55:49;12.17;;;5.90;;
18280;SDS011;9266;51.132;17.062;2023-05-29T01:58:17;12.67;;;5.93;;
18280;SDS011;9266;51.132;17.062;2023-05-29T02:00:44;11.53;;;6.20;;
18280;SDS011;9266;51.132;17.062;2023-05-29T02:03:13;11.50;;;6.40;;
18280;SDS011;9266;51.132;17.062;2023-05-29T02:05:40;8.43;;;5.70;;
18280;SDS011;9266;51.132;17.062;2023-05-29T02:08:07;9.97;;;5.20;;
18280;SDS011;9266;51.132;17.062;2023-05-29T02:10:34;9.10;;;5.00;;
18280;SDS011;9266;51.132;17.062;2023-05-29T02:13:01;9.57;;;5.93;;
18280;SDS011;9266;51.132;17.062;2023-05-29T02:15:28;12.57;;;5.93;;
18280;SDS011;9266;51.132;17.062;2023-05-29T02:17:55;11.20;;;6.00;;
18280;SDS011;9266;51.132;17.062;2023-05-29T02:20:23;8.53;;;6.20;;
18280;SDS011;9266;51.132;17.062;2023-05-29T02:22:50;9.83;;;6.90;;
18280;SDS011;9266;51.132;17.062;2023-05-29T02:25:17;13.57;;;7.77;;
18280;SDS011;9266;51.132;17.062;2023-05-29T02:27:45;20.40;;;8.87;;
18280;SDS011;9266;51.132;17.062;2023-05-29T02:30:12;12.83;;;7.43;;
18280;SDS011;9266;51.132;17.062;2023-05-29T02:32:39;11.87;;;6.43;;
18280;SDS011;9266;51.132;17.062;2023-05-29T02:35:06;8.77;;;6.03;;
18280;SDS011;9266;51.132;17.062;2023-05-29T02:37:35;11.43;;;5.87;;
18280;SDS011;9266;51.132;17.062;2023-05-29T02:40:02;7.03;;;4.83;;
18280;SDS011;9266;51.132;17.062;2023-05-29T02:42:29;10.13;;;6.13;;
18280;SDS011;9266;51.132;17.062;2023-05-29T02:44:56;19.17;;;8.03;;
18280;SDS011;9266;51.132;17.062;2023-05-29T02:47:23;23.67;;;8.13;;
18280;SDS011;9266;51.132;17.062;2023-05-29T02:49:50;26.73;;;8.47;;
18280;SDS011;9266;51.132;17.062;2023-05-29T02:52:17;21.60;;;8.20;;
18280;SDS011;9266;51.132;17.062;2023-05-29T02:54:45;16.67;;;7.40;;
18280;SDS011;9266;51.132;17.062;2023-05-29T02:57:12;10.73;;;5.50;;
18280;SDS011;9266;51.132;17.062;2023-05-29T02:59:40;14.37;;;6.10;;
18280;SDS011;9266;51.132;17.062;2023-05-29T03:02:09;9.77;;;6.37;;
18280;SDS011;9266;51.132;17.062;2023-05-29T03:04:36;14.33;;;6.63;;
18280;SDS011;9266;51.132;17.062;2023-05-29T03:07:03;16.73;;;6.90;;
18280;SDS011;9266;51.132;17.062;2023-05-29T03:09:31;14.60;;;7.30;;
18280;SDS011;9266;51.132;17.062;2023-05-29T03:12:00;13.53;;;6.20;;
18280;SDS011;9266;51.132;17.062;2023-05-29T03:14:27;8.70;;;5.77;;
18280;SDS011;9266;51.132;17.062;2023-05-29T03:16:54;18.93;;;7.10;;
18280;SDS011;9266;51.132;17.062;2023-05-29T03:19:21;11.30;;;5.70;;
18280;SDS011;9266;51.132;17.062;2023-05-29T03:21:48;14.30;;;5.57;;
18280;SDS011;9266;51.132;17.062;2023-05-29T03:24:15;12.60;;;5.80;;
18280;SDS011;9266;51.132;17.062;2023-05-29T03:26:42;9.63;;;5.10;;
18280;SDS011;9266;51.132;17.062;2023-05-29T03:29:11;7.37;;;4.80;;
18280;SDS011;9266;51.132;17.062;2023-05-29T03:31:38;8.43;;;5.37;;
18280;SDS011;9266;51.132;17.062;2023-05-29T03:34:05;15.57;;;5.50;;
18280;SDS011;9266;51.132;17.062;2023-05-29T03:36:32;9.17;;;5.33;;
18280;SDS011;9266;51.132;17.062;2023-05-29T03:39:01;14.20;;;5.70;;
18280;SDS011;9266;51.132;17.062;2023-05-29T03:41:28;10.53;;;5.60;;
18280;SDS011;9266;51.132;17.062;2023-05-29T03:43:55;11.60;;;5.83;;
18280;SDS011;9266;51.132;17.062;2023-05-29T03:46:23;14.83;;;7.13;;
18280;SDS011;9266;51.132;17.062;2023-05-29T03:48:52;12.00;;;6.00;;
18280;SDS011;9266;51.132;17.062;2023-05-29T03:51:19;7.80;;;5.60;;
18280;SDS011;9266;51.132;17.062;2023-05-29T03:53:46;10.83;;;5.60;;
18280;SDS011;9266;51.132;17.062;2023-05-29T03:56:13;8.83;;;5.30;;
18280;SDS011;9266;51.132;17.062;2023-05-29T03:58:40;8.10;;;5.40;;
18280;SDS011;9266;51.132;17.062;2023-05-29T04:01:07;8.60;;;5.63;;
18280;SDS011;9266;51.132;17.062;2023-05-29T04:03:36;8.80;;;5.33;;
18280;SDS011;9266;51.132;17.062;2023-05-29T04:06:04;13.47;;;5.70;;
18280;SDS011;9266;51.132;17.062;2023-05-29T04:08:31;17.77;;;7.03;;
18280;SDS011;9266;51.132;17.062;2023-05-29T04:10:58;8.83;;;6.17;;
18280;SDS011;9266;51.132;17.062;2023-05-29T04:13:26;13.27;;;6.10;;
18280;SDS011;9266;51.132;17.062;2023-05-29T04:15:53;9.67;;;6.17;;
18280;SDS011;9266;51.132;17.062;2023-05-29T04:18:20;9.50;;;5.80;;
18280;SDS011;9266;51.132;17.062;2023-05-29T04:20:48;12.60;;;5.70;;
18280;SDS011;9266;51.132;17.062;2023-05-29T04:23:15;10.33;;;5.47;;
18280;SDS011;9266;51.132;17.062;2023-05-29T04:25:42;10.60;;;5.50;;
18280;SDS011;9266;51.132;17.062;2023-05-29T04:28:10;7.00;;;5.57;;
18280;SDS011;9266;51.132;17.062;2023-05-29T04:30:37;9.17;;;5.70;;
18280;SDS011;9266;51.132;17.062;2023-05-29T04:33:04;10.03;;;5.43;;
18280;SDS011;9266;51.132;17.062;2023-05-29T04:35:31;9.13;;;5.57;;
18280;SDS011;9266;51.132;17.062;2023-05-29T04:37:59;10.07;;;5.37;;
18280;SDS011;9266;51.132;17.062;2023-05-29T04:40:26;8.27;;;4.93;;
18280;SDS011;9266;51.132;17.062;2023-05-29T04:42:53;7.93;;;5.00;;
18280;SDS011;9266;51.132;17.062;2023-05-29T04:45:20;6.47;;;4.80;;
18280;SDS011;9266;51.132;17.062;2023-05-29T04:47:48;9.80;;;5.03;;
18280;SDS011;9266;51.132;17.062;2023-05-29T04:50:17;9.63;;;4.77;;
18280;SDS011;9266;51.132;17.062;2023-05-29T04:52:44;9.27;;;4.83;;
18280;SDS011;9266;51.132;17.062;2023-05-29T04:55:13;9.43;;;5.00;;
18280;SDS011;9266;51.132;17.062;2023-05-29T04:57:41;8.33;;;5.20;;
18280;SDS011;9266;51.132;17.062;2023-05-29T05:00:09;9.77;;;5.20;;
18280;SDS011;9266;51.132;17.062;2023-05-29T05:02:39;8.07;;;4.80;;
18280;SDS011;9266;51.132;17.062;2023-05-29T05:05:07;12.50;;;5.30;;
18280;SDS011;9266;51.132;17.062;2023-05-29T05:07:34;10.17;;;5.27;;
18280;SDS011;9266;51.132;17.062;2023-05-29T05:10:02;10.03;;;4.47;;
18280;SDS011;9266;51.132;17.062;2023-05-29T05:12:31;9.00;;;4.33;;
18280;SDS011;9266;51.132;17.062;2023-05-29T05:14:58;8.87;;;4.83;;
18280;SDS011;9266;51.132;17.062;2023-05-29T05:17:25;8.37;;;5.13;;
18280;SDS011;9266;51.132;17.062;2023-05-29T05:19:52;7.00;;;4.60;;
18280;SDS011;9266;51.132;17.062;2023-05-29T05:22:19;8.03;;;4.57;;
18280;SDS011;9266;51.132;17.062;2023-05-29T05:24:46;8.07;;;4.50;;
18280;SDS011;9266;51.132;17.062;2023-05-29T05:27:13;9.53;;;4.53;;
18280;SDS011;9266;51.132;17.062;2023-05-29T05:29:41;10.03;;;5.00;;
18280;SDS011;9266;51.132;17.062;2023-05-29T05:32:09;7.93;;;4.23;;
18280;SDS011;9266;51.132;17.062;2023-05-29T05:34:36;8.70;;;4.72;;
18280;SDS011;9266;51.132;17.062;2023-05-29T05:37:03;12.70;;;5.25;;
18280;SDS011;9266;51.132;17.062;2023-05-29T05:39:31;6.00;;;3.90;;
18280;SDS011;9266;51.132;17.062;2023-05-29T05:41:58;13.50;;;4.35;;
18280;SDS011;9266;51.132;17.062;2023-05-29T05:44:26;12.77;;;4.90;;
18280;SDS011;9266;51.132;17.062;2023-05-29T05:46:54;6.63;;;4.00;;
18280;SDS011;9266;51.132;17.062;2023-05-29T05:49:21;6.15;;;4.00;;
18280;SDS011;9266;51.132;17.062;2023-05-29T05:51:48;9.15;;;4.45;;
18280;SDS011;9266;51.132;17.062;2023-05-29T05:54:16;10.98;;;4.68;;
18280;SDS011;9266;51.132;17.062;2023-05-29T05:56:44;7.88;;;3.90;;
18280;SDS011;9266;51.132;17.062;2023-05-29T05:59:11;6.18;;;4.13;;
18280;SDS011;9266;51.132;17.062;2023-05-29T06:01:37;9.63;;;4.15;;
18280;SDS011;9266;51.132;17.062;2023-05-29T06:04:07;9.63;;;4.28;;
18280;SDS011;9266;51.132;17.062;2023-05-29T06:06:34;9.23;;;4.00;;
18280;SDS011;9266;51.132;17.062;2023-05-29T06:09:01;7.30;;;4.22;;
18280;SDS011;9266;51.132;17.062;2023-05-29T06:11:29;6.55;;;4.28;;
18280;SDS011;9266;51.132;17.062;2023-05-29T06:13:56;7.80;;;4.60;;
18280;SDS011;9266;51.132;17.062;2023-05-29T06:16:24;11.05;;;4.10;;
18280;SDS011;9266;51.132;17.062;2023-05-29T06:18:51;9.43;;;4.80;;
18280;SDS011;9266;51.132;17.062;2023-05-29T06:21:20;8.68;;;4.07;;
18280;SDS011;9266;51.132;17.062;2023-05-29T06:23:47;5.22;;;3.50;;
18280;SDS011;9266;51.132;17.062;2023-05-29T06:26:14;6.65;;;3.70;;
18280;SDS011;9266;51.132;17.062;2023-05-29T06:28:42;5.90;;;3.22;;
18280;SDS011;9266;51.132;17.062;2023-05-29T06:31:09;6.45;;;3.40;;
18280;SDS011;9266;51.132;17.062;2023-05-29T06:33:36;6.55;;;3.13;;
18280;SDS011;9266;51.132;17.062;2023-05-29T06:36:03;5.15;;;3.70;;
18280;SDS011;9266;51.132;17.062;2023-05-29T06:38:33;9.70;;;4.13;;
18280;SDS011;9266;51.132;17.062;2023-05-29T06:41:00;9.27;;;3.40;;
18280;SDS011;9266;51.132;17.062;2023-05-29T06:43:27;6.38;;;3.65;;
18280;SDS011;9266;51.132;17.062;2023-05-29T06:45:54;6.32;;;3.60;;
18280;SDS011;9266;51.132;17.062;2023-05-29T06:48:21;7.05;;;3.45;;
18280;SDS011;9266;51.132;17.062;2023-05-29T06:50:48;7.53;;;3.33;;
18280;SDS011;9266;51.132;17.062;2023-05-29T06:53:15;5.40;;;3.60;;
18280;SDS011;9266;51.132;17.062;2023-05-29T06:55:44;7.60;;;3.33;;
18280;SDS011;9266;51.132;17.062;2023-05-29T06:58:11;9.75;;;3.20;;
18280;SDS011;9266;51.132;17.062;2023-05-29T07:00:38;5.75;;;3.28;;
18280;SDS011;9266;51.132;17.062;2023-05-29T07:03:05;6.57;;;3.15;;
18280;SDS011;9266;51.132;17.062;2023-05-29T07:05:32;6.90;;;3.63;;
18280;SDS011;9266;51.132;17.062;2023-05-29T07:07:59;4.90;;;2.90;;
18280;SDS011;9266;51.132;17.062;2023-05-29T07:10:26;6.00;;;3.47;;
18280;SDS011;9266;51.132;17.062;2023-05-29T07:12:54;9.38;;;3.40;;
18280;SDS011;9266;51.132;17.062;2023-05-29T07:15:21;7.88;;;3.55;;
18280;SDS011;9266;51.132;17.062;2023-05-29T07:17:49;7.80;;;3.40;;
18280;SDS011;9266;51.132;17.062;2023-05-29T07:20:15;6.53;;;3.20;;
18280;SDS011;9266;51.132;17.062;2023-05-29T07:22:45;6.65;;;3.53;;
18280;SDS011;9266;51.132;17.062;2023-05-29T07:25:12;9.68;;;3.42;;
18280;SDS011;9266;51.132;17.062;2023-05-29T07:27:39;8.40;;;3.47;;
18280;SDS011;9266;51.132;17.062;2023-05-29T07:30:08;7.75;;;3.63;;
18280;SDS011;9266;51.132;17.062;2023-05-29T07:32:35;5.25;;;3.60;;
18280;SDS011;9266;51.132;17.062;2023-05-29T07:35:03;4.35;;;2.70;;
18280;SDS011;9266;51.132;17.062;2023-05-29T07:37:30;7.63;;;3.03;;
18280;SDS011;9266;51.132;17.062;2023-05-29T07:39:57;6.63;;;3.25;;
18280;SDS011;9266;51.132;17.062;2023-05-29T07:42:24;7.40;;;2.83;;
18280;SDS011;9266;51.132;17.062;2023-05-29T07:44:52;6.43;;;3.00;;
18280;SDS011;9266;51.132;17.062;2023-05-29T07:47:20;6.38;;;2.70;;
18280;SDS011;9266;51.132;17.062;2023-05-29T07:49:47;7.55;;;3.33;;
18280;SDS011;9266;51.132;17.062;2023-05-29T07:52:15;6.28;;;3.42;;
18280;SDS011;9266;51.132;17.062;2023-05-29T07:54:42;5.03;;;3.10;;
18280;SDS011;9266;51.132;17.062;2023-05-29T07:57:09;6.00;;;2.70;;
18280;SDS011;9266;51.132;17.062;2023-05-29T07:59:36;4.75;;;3.00;;
18280;SDS011;9266;51.132;17.062;2023-05-29T08:02:03;5.40;;;2.88;;
18280;SDS011;9266;51.132;17.062;2023-05-29T08:04:32;5.55;;;2.88;;
18280;SDS011;9266;51.132;17.062;2023-05-29T08:06:59;6.85;;;2.58;;
18280;SDS011;9266;51.132;17.062;2023-05-29T08:09:28;6.30;;;3.13;;
18280;SDS011;9266;51.132;17.062;2023-05-29T08:11:55;7.60;;;3.38;;
18280;SDS011;9266;51.132;17.062;2023-05-29T08:14:22;6.82;;;2.92;;
18280;SDS011;9266;51.132;17.062;2023-05-29T08:16:49;4.07;;;2.47;;
18280;SDS011;9266;51.132;17.062;2023-05-29T08:19:16;4.07;;;2.30;;
18280;SDS011;9266;51.132;17.062;2023-05-29T08:21:45;5.47;;;2.90;;
18280;SDS011;9266;51.132;17.062;2023-05-29T08:24:12;3.20;;;2.20;;
18280;SDS011;9266;51.132;17.062;2023-05-29T08:26:39;6.47;;;2.42;;
18280;SDS011;9266;51.132;17.062;2023-05-29T08:29:06;4.28;;;2.28;;
18280;SDS011;9266;51.132;17.062;2023-05-29T08:31:33;3.35;;;2.20;;
18280;SDS011;9266;51.132;17.062;2023-05-29T08:34:00;6.25;;;2.28;;
18280;SDS011;9266;51.132;17.062;2023-05-29T08:36:27;4.15;;;2.05;;
18280;SDS011;9266;51.132;17.062;2023-05-29T08:38:56;6.18;;;2.80;;
18280;SDS011;9266;51.132;17.062;2023-05-29T08:41:25;5.53;;;2.50;;
18280;SDS011;9266;51.132;17.062;2023-05-29T08:43:55;9.18;;;2.63;;
18280;SDS011;9266;51.132;17.062;2023-05-29T08:46:25;5.40;;;2.50;;
18280;SDS011;9266;51.132;17.062;2023-05-29T08:48:52;5.35;;;2.42;;
18280;SDS011;9266;51.132;17.062;2023-05-29T08:51:23;4.05;;;2.42;;
18280;SDS011;9266;51.132;17.062;2023-05-29T08:53:59;4.88;;;2.50;;
18280;SDS011;9266;51.132;17.062;2023-05-29T08:56:26;4.00;;;2.45;;
18280;SDS011;9266;51.132;17.062;2023-05-29T08:58:53;6.50;;;2.33;;
18280;SDS011;9266;51.132;17.062;2023-05-29T09:01:21;3.38;;;2.15;;
18280;SDS011;9266;51.132;17.062;2023-05-29T09:03:49;4.75;;;2.90;;
18280;SDS011;9266;51.132;17.062;2023-05-29T09:06:17;4.20;;;2.55;;
18280;SDS011;9266;51.132;17.062;2023-05-29T09:08:46;4.15;;;2.55;;
18280;SDS011;9266;51.132;17.062;2023-05-29T09:11:15;4.75;;;2.35;;
18280;SDS011;9266;51.132;17.062;2023-05-29T09:13:42;5.82;;;2.70;;
18280;SDS011;9266;51.132;17.062;2023-05-29T09:16:09;3.85;;;2.30;;
18280;SDS011;9266;51.132;17.062;2023-05-29T09:18:36;9.07;;;2.80;;
18280;SDS011;9266;51.132;17.062;2023-05-29T09:21:06;5.60;;;2.70;;
18280;SDS011;9266;51.132;17.062;2023-05-29T09:23:34;6.80;;;3.00;;
18280;SDS011;9266;51.132;17.062;2023-05-29T09:26:02;4.60;;;3.00;;
18280;SDS011;9266;51.132;17.062;2023-05-29T09:28:31;6.03;;;3.20;;
18280;SDS011;9266;51.132;17.062;2023-05-29T09:30:58;5.30;;;2.77;;
18280;SDS011;9266;51.132;17.062;2023-05-29T09:33:25;5.90;;;2.80;;
18280;SDS011;9266;51.132;17.062;2023-05-29T09:35:52;3.97;;;2.70;;
18280;SDS011;9266;51.132;17.062;2023-05-29T09:38:19;4.63;;;2.90;;
18280;SDS011;9266;51.132;17.062;2023-05-29T09:40:46;3.57;;;2.93;;
18280;SDS011;9266;51.132;17.062;2023-05-29T09:43:14;4.37;;;2.90;;
18280;SDS011;9266;51.132;17.062;2023-05-29T09:45:43;6.07;;;3.00;;
18280;SDS011;9266;51.132;17.062;2023-05-29T09:48:12;6.10;;;2.67;;
18280;SDS011;9266;51.132;17.062;2023-05-29T09:50:40;4.97;;;3.10;;
18280;SDS011;9266;51.132;17.062;2023-05-29T09:53:19;8.97;;;3.27;;
18280;SDS011;9266;51.132;17.062;2023-05-29T09:55:48;5.80;;;3.10;;
18280;SDS011;9266;51.132;17.062;2023-05-29T09:58:15;5.43;;;3.30;;
18280;SDS011;9266;51.132;17.062;2023-05-29T10:00:45;7.50;;;3.30;;
18280;SDS011;9266;51.132;17.062;2023-05-29T10:03:13;5.43;;;3.20;;
18280;SDS011;9266;51.132;17.062;2023-05-29T10:05:40;6.83;;;3.30;;
18280;SDS011;9266;51.132;17.062;2023-05-29T10:08:08;5.87;;;3.20;;
18280;SDS011;9266;51.132;17.062;2023-05-29T10:10:39;8.70;;;3.40;;
18280;SDS011;9266;51.132;17.062;2023-05-29T10:13:08;6.37;;;3.20;;
18280;SDS011;9266;51.132;17.062;2023-05-29T10:15:39;6.67;;;3.43;;
18280;SDS011;9266;51.132;17.062;2023-05-29T10:18:11;7.73;;;3.23;;
18280;SDS011;9266;51.132;17.062;2023-05-29T10:20:45;4.07;;;2.97;;
18280;SDS011;9266;51.132;17.062;2023-05-29T10:23:16;7.23;;;3.20;;
18280;SDS011;9266;51.132;17.062;2023-05-29T10:25:49;6.20;;;3.43;;
18280;SDS011;9266;51.132;17.062;2023-05-29T10:28:18;4.90;;;3.10;;
18280;SDS011;9266;51.132;17.062;2023-05-29T10:30:47;4.83;;;3.10;;
18280;SDS011;9266;51.132;17.062;2023-05-29T10:33:30;4.43;;;2.63;;
18280;SDS011;9266;51.132;17.062;2023-05-29T10:36:06;7.30;;;3.13;;
18280;SDS011;9266;51.132;17.062;2023-05-29T10:38:40;5.87;;;3.50;;
18280;SDS011;9266;51.132;17.062;2023-05-29T10:44:04;5.37;;;3.10;;
18280;SDS011;9266;51.132;17.062;2023-05-29T10:47:05;5.87;;;3.30;;
18280;SDS011;9266;51.132;17.062;2023-05-29T10:49:35;8.40;;;3.50;;
18280;SDS011;9266;51.132;17.062;2023-05-29T10:52:03;5.40;;;3.33;;
18280;SDS011;9266;51.132;17.062;2023-05-29T10:54:39;6.43;;;3.40;;
18280;SDS011;9266;51.132;17.062;2023-05-29T10:57:17;5.33;;;3.20;;
18280;SDS011;9266;51.132;17.062;2023-05-29T10:59:46;4.97;;;3.07;;
18280;SDS011;9266;51.132;17.062;2023-05-29T11:02:17;4.20;;;2.90;;
18280;SDS011;9266;51.132;17.062;2023-05-29T11:04:47;6.73;;;3.40;;
18280;SDS011;9266;51.132;17.062;2023-05-29T11:07:34;5.83;;;3.10;;
18280;SDS011;9266;51.132;17.062;2023-05-29T11:10:16;4.37;;;2.97;;
18280;SDS011;9266;51.132;17.062;2023-05-29T11:12:56;6.67;;;3.30;;
18280;SDS011;9266;51.132;17.062;2023-05-29T11:15:24;6.63;;;3.00;;
18280;SDS011;9266;51.132;17.062;2023-05-29T11:17:52;6.80;;;2.60;;
18280;SDS011;9266;51.132;17.062;2023-05-29T11:23:08;5.60;;;3.05;;
18280;SDS011;9266;51.132;17.062;2023-05-29T11:25:43;7.00;;;3.30;;
18280;SDS011;9266;51.132;17.062;2023-05-29T11:28:11;4.53;;;3.13;;
18280;SDS011;9266;51.132;17.062;2023-05-29T11:30:42;4.73;;;3.33;;
18280;SDS011;9266;51.132;17.062;2023-05-29T11:33:13;5.37;;;3.20;;
18280;SDS011;9266;51.132;17.062;2023-05-29T11:35:57;10.65;;;3.28;;
18280;SDS011;9266;51.132;17.062;2023-05-29T11:38:25;13.75;;;3.95;;
18280;SDS011;9266;51.132;17.062;2023-05-29T11:40:53;8.43;;;3.27;;
18280;SDS011;9266;51.132;17.062;2023-05-29T11:43:21;7.27;;;3.27;;
18280;SDS011;9266;51.132;17.062;2023-05-29T11:45:48;4.63;;;3.30;;
18280;SDS011;9266;51.132;17.062;2023-05-29T11:48:15;3.80;;;2.90;;
18280;SDS011;9266;51.132;17.062;2023-05-29T11:50:42;4.60;;;2.77;;
18280;SDS011;9266;51.132;17.062;2023-05-29T11:53:11;6.53;;;3.13;;
18280;SDS011;9266;51.132;17.062;2023-05-29T11:55:38;6.67;;;3.43;;
18280;SDS011;9266;51.132;17.062;2023-05-29T11:58:06;6.77;;;3.50;;
18280;SDS011;9266;51.132;17.062;2023-05-29T12:00:34;6.07;;;3.37;;
18280;SDS011;9266;51.132;17.062;2023-05-29T12:03:02;5.30;;;3.13;;
18280;SDS011;9266;51.132;17.062;2023-05-29T12:05:29;6.07;;;3.53;;
18280;SDS011;9266;51.132;17.062;2023-05-29T12:07:57;5.68;;;3.28;;
18280;SDS011;9266;51.132;17.062;2023-05-29T12:10:27;5.57;;;3.30;;
18280;SDS011;9266;51.132;17.062;2023-05-29T12:12:55;9.57;;;3.17;;
18280;SDS011;9266;51.132;17.062;2023-05-29T12:15:25;9.65;;;3.05;;
18280;SDS011;9266;51.132;17.062;2023-05-29T12:17:52;4.65;;;3.00;;
18280;SDS011;9266;51.132;17.062;2023-05-29T12:20:22;5.63;;;3.20;;
18280;SDS011;9266;51.132;17.062;2023-05-29T12:22:51;7.63;;;3.10;;
18280;SDS011;9266;51.132;17.062;2023-05-29T12:25:19;5.80;;;3.27;;
18280;SDS011;9266;51.132;17.062;2023-05-29T12:27:49;7.45;;;3.50;;
18280;SDS011;9266;51.132;17.062;2023-05-29T12:30:19;6.07;;;3.00;;
18280;SDS011;9266;51.132;17.062;2023-05-29T12:32:48;6.20;;;3.20;;
18280;SDS011;9266;51.132;17.062;2023-05-29T12:35:17;7.05;;;3.40;;
18280;SDS011;9266;51.132;17.062;2023-05-29T12:37:45;5.88;;;3.25;;
18280;SDS011;9266;51.132;17.062;2023-05-29T12:40:17;5.65;;;3.08;;
18280;SDS011;9266;51.132;17.062;2023-05-29T12:42:46;8.38;;;3.17;;
18280;SDS011;9266;51.132;17.062;2023-05-29T12:45:15;6.72;;;2.95;;
18280;SDS011;9266;51.132;17.062;2023-05-29T12:47:45;4.88;;;2.95;;
18280;SDS011;9266;51.132;17.062;2023-05-29T12:50:20;5.05;;;3.10;;
18280;SDS011;9266;51.132;17.062;2023-05-29T12:52:57;8.13;;;3.08;;
18280;SDS011;9266;51.132;17.062;2023-05-29T12:55:25;6.57;;;3.08;;
18280;SDS011;9266;51.132;17.062;2023-05-29T12:57:53;4.72;;;3.30;;
18280;SDS011;9266;51.132;17.062;2023-05-29T13:00:22;4.35;;;3.10;;
18280;SDS011;9266;51.132;17.062;2023-05-29T13:02:49;4.05;;;3.10;;
18280;SDS011;9266;51.132;17.062;2023-05-29T13:05:17;6.03;;;3.05;;
18280;SDS011;9266;51.132;17.062;2023-05-29T13:07:47;5.57;;;2.90;;
18280;SDS011;9266;51.132;17.062;2023-05-29T13:10:15;4.03;;;3.20;;
18280;SDS011;9266;51.132;17.062;2023-05-29T13:12:42;7.15;;;3.40;;
18280;SDS011;9266;51.132;17.062;2023-05-29T13:15:10;7.55;;;3.20;;
18280;SDS011;9266;51.132;17.062;2023-05-29T13:17:39;7.32;;;3.17;;
18280;SDS011;9266;51.132;17.062;2023-05-29T13:20:08;4.18;;;2.95;;
18280;SDS011;9266;51.132;17.062;2023-05-29T13:22:36;4.90;;;3.30;;
18280;SDS011;9266;51.132;17.062;2023-05-29T13:25:03;6.57;;;3.42;;
18280;SDS011;9266;51.132;17.062;2023-05-29T13:27:32;4.55;;;3.03;;
18280;SDS011;9266;51.132;17.062;2023-05-29T13:30:00;6.05;;;2.97;;
18280;SDS011;9266;51.132;17.062;2023-05-29T13:32:27;5.03;;;2.92;;
18280;SDS011;9266;51.132;17.062;2023-05-29T13:34:56;5.95;;;2.90;;
18280;SDS011;9266;51.132;17.062;2023-05-29T13:37:23;3.90;;;2.88;;
18280;SDS011;9266;51.132;17.062;2023-05-29T13:39:50;4.80;;;3.40;;
18280;SDS011;9266;51.132;17.062;2023-05-29T13:42:18;5.55;;;3.67;;
18280;SDS011;9266;51.132;17.062;2023-05-29T13:44:45;4.00;;;3.17;;
18280;SDS011;9266;51.132;17.062;2023-05-29T13:47:12;6.53;;;3.50;;
18280;SDS011;9266;51.132;17.062;2023-05-29T13:49:39;5.57;;;3.20;;
18280;SDS011;9266;51.132;17.062;2023-05-29T13:52:08;5.85;;;3.28;;
18280;SDS011;9266;51.132;17.062;2023-05-29T13:54:36;4.22;;;3.30;;
18280;SDS011;9266;51.132;17.062;2023-05-29T13:57:03;6.60;;;2.90;;
18280;SDS011;9266;51.132;17.062;2023-05-29T13:59:30;7.00;;;3.17;;
18280;SDS011;9266;51.132;17.062;2023-05-29T14:01:58;5.80;;;3.20;;
18280;SDS011;9266;51.132;17.062;2023-05-29T14:04:25;5.90;;;3.00;;
18280;SDS011;9266;51.132;17.062;2023-05-29T14:06:52;4.63;;;2.90;;
18280;SDS011;9266;51.132;17.062;2023-05-29T14:09:23;4.20;;;3.08;;
18280;SDS011;9266;51.132;17.062;2023-05-29T14:11:52;7.10;;;3.15;;
18280;SDS011;9266;51.132;17.062;2023-05-29T14:14:20;6.63;;;2.97;;
18280;SDS011;9266;51.132;17.062;2023-05-29T14:16:48;6.43;;;3.15;;
18280;SDS011;9266;51.132;17.062;2023-05-29T14:19:16;4.88;;;3.25;;
18280;SDS011;9266;51.132;17.062;2023-05-29T14:21:44;4.25;;;3.00;;
18280;SDS011;9266;51.132;17.062;2023-05-29T14:24:11;4.50;;;3.33;;
18280;SDS011;9266;51.132;17.062;2023-05-29T14:26:39;7.75;;;3.53;;
18280;SDS011;9266;51.132;17.062;2023-05-29T14:29:08;5.70;;;3.53;;
18280;SDS011;9266;51.132;17.062;2023-05-29T14:31:35;5.18;;;3.15;;
18280;SDS011;9266;51.132;17.062;2023-05-29T14:34:02;7.50;;;3.80;;
18280;SDS011;9266;51.132;17.062;2023-05-29T14:36:29;4.13;;;2.78;;
18280;SDS011;9266;51.132;17.062;2023-05-29T14:38:56;3.53;;;3.10;;
18280;SDS011;9266;51.132;17.062;2023-05-29T14:41:23;5.57;;;3.65;;
18280;SDS011;9266;51.132;17.062;2023-05-29T14:43:52;5.53;;;3.20;;
18280;SDS011;9266;51.132;17.062;2023-05-29T14:46:23;5.68;;;3.47;;
18280;SDS011;9266;51.132;17.062;2023-05-29T14:48:50;5.47;;;3.45;;
18280;SDS011;9266;51.132;17.062;2023-05-29T14:51:19;6.85;;;3.92;;
18280;SDS011;9266;51.132;17.062;2023-05-29T14:53:46;4.38;;;3.20;;
18280;SDS011;9266;51.132;17.062;2023-05-29T14:56:13;7.07;;;3.38;;
18280;SDS011;9266;51.132;17.062;2023-05-29T14:58:40;3.97;;;3.38;;